createdAt,value
2022-08-25T00:00:13.995Z,21.25
2022-08-25T00:02:41.485Z,21.24
2022-08-25T00:05:21.931Z,21.23
2022-08-25T00:07:48.941Z,21.12
2022-08-25T00:10:15.548Z,20.88
2022-08-25T00:12:42.183Z,20.87
2022-08-25T00:15:09.805Z,20.73
2022-08-25T00:17:36.488Z,20.95
2022-08-25T00:20:05.230Z,20.91
2022-08-25T00:22:31.897Z,20.91
2022-08-25T00:24:58.522Z,21.07
2022-08-25T00:27:25.967Z,20.98
2022-08-25T00:29:52.586Z,20.91
2022-08-25T00:32:19.311Z,20.69
2022-08-25T00:34:46.332Z,20.64
2022-08-25T00:37:13.306Z,20.65
2022-08-25T00:39:40.201Z,20.67
2022-08-25T00:42:16.128Z,20.71
2022-08-25T00:44:43.924Z,20.69
2022-08-25T00:47:10.932Z,20.63
2022-08-25T00:49:45.240Z,20.57
2022-08-25T00:52:27.441Z,20.56
2022-08-25T00:55:07.774Z,20.64
2022-08-25T00:57:39.476Z,20.46
2022-08-25T01:00:12.415Z,20.52
2022-08-25T01:02:39.635Z,20.56
2022-08-25T01:05:06.722Z,20.62
2022-08-25T01:07:33.564Z,20.40
2022-08-25T01:10:01.005Z,20.45
2022-08-25T01:12:27.731Z,20.28
2022-08-25T01:14:55.305Z,20.31
2022-08-25T01:17:22.046Z,20.19
2022-08-25T01:19:48.630Z,20.16
2022-08-25T01:22:15.692Z,20.21
2022-08-25T01:25:03.961Z,20.23
2022-08-25T01:27:30.650Z,20.09
2022-08-25T01:29:58.019Z,19.93
2022-08-25T01:32:25.082Z,19.79
2022-08-25T01:34:51.983Z,19.48
2022-08-25T01:37:19.310Z,19.37
2022-08-25T01:39:46.588Z,19.53
2022-08-25T01:42:19.364Z,19.49
2022-08-25T01:44:47.655Z,19.36
2022-08-25T01:47:15.211Z,19.26
2022-08-25T01:49:42.093Z,19.15
2022-08-25T01:52:25.090Z,19.51
2022-08-25T01:54:51.847Z,19.72
2022-08-25T01:57:18.520Z,19.62
2022-08-25T01:59:45.527Z,19.74
2022-08-25T02:02:12.269Z,19.59
2022-08-25T02:04:39.525Z,19.33
2022-08-25T02:07:08.732Z,19.00
2022-08-25T02:09:36.825Z,18.79
2022-08-25T02:12:03.821Z,18.53
2022-08-25T02:14:30.456Z,18.35
2022-08-25T02:16:57.300Z,18.25
2022-08-25T02:19:25.841Z,18.13
2022-08-25T02:21:52.670Z,18.17
2022-08-25T02:24:19.323Z,18.05
2022-08-25T02:26:46.044Z,17.95
2022-08-25T02:29:12.748Z,17.80
2022-08-25T02:31:39.728Z,17.77
2022-08-25T02:34:07.938Z,17.62
2022-08-25T02:36:34.867Z,17.51
2022-08-25T02:39:02.167Z,17.43
2022-08-25T02:41:31.809Z,17.43
2022-08-25T02:43:59.895Z,17.43
2022-08-25T02:46:29.196Z,17.40
2022-08-25T02:48:55.886Z,17.40
2022-08-25T02:51:24.310Z,17.32
2022-08-25T02:53:51.362Z,17.28
2022-08-25T02:56:18.951Z,17.22
2022-08-25T02:58:46.784Z,17.27
2022-08-25T03:01:14.531Z,17.16
2022-08-25T03:03:43.636Z,17.17
2022-08-25T03:06:12.815Z,17.31
2022-08-25T03:08:40.126Z,17.49
2022-08-25T03:11:07.077Z,17.31
2022-08-25T03:13:33.834Z,17.36
2022-08-25T03:16:01.674Z,17.42
2022-08-25T03:18:30.193Z,17.10
2022-08-25T03:20:58.088Z,16.98
2022-08-25T03:23:25.122Z,16.93
2022-08-25T03:26:13.342Z,17.00
2022-08-25T03:28:41.680Z,16.88
2022-08-25T03:31:09.542Z,16.68
2022-08-25T03:33:36.473Z,16.57
2022-08-25T03:36:03.469Z,16.60
2022-08-25T03:38:30.118Z,16.75
2022-08-25T03:40:56.783Z,16.72
2022-08-25T03:43:23.655Z,16.72
2022-08-25T03:45:50.383Z,16.86
2022-08-25T03:48:17.678Z,16.95
2022-08-25T03:50:50.463Z,16.87
2022-08-25T03:53:19.923Z,16.76
2022-08-25T03:55:46.832Z,16.80
2022-08-25T03:58:16.637Z,16.73
2022-08-25T04:00:43.309Z,16.76
2022-08-25T04:03:10.015Z,16.75
2022-08-25T04:05:36.709Z,16.88
2022-08-25T04:08:03.793Z,16.78
2022-08-25T04:10:31.194Z,16.74
2022-08-25T04:12:58.238Z,16.71
2022-08-25T04:15:28.568Z,16.78
2022-08-25T04:17:59.007Z,16.69
2022-08-25T04:20:26.325Z,16.65
2022-08-25T04:22:53.105Z,16.72
2022-08-25T04:25:19.913Z,16.67
2022-08-25T04:27:46.574Z,16.64
2022-08-25T04:30:13.752Z,16.56
2022-08-25T04:32:40.377Z,16.55
2022-08-25T04:35:07.575Z,16.55
2022-08-25T04:37:34.477Z,16.54
2022-08-25T04:40:02.147Z,16.61
2022-08-25T04:42:28.904Z,16.85
2022-08-25T04:44:55.872Z,16.86
2022-08-25T04:47:22.663Z,17.25
2022-08-25T04:49:49.340Z,17.28
2022-08-25T04:52:16.110Z,17.45
2022-08-25T04:54:43.738Z,17.69
2022-08-25T04:57:10.442Z,18.04
2022-08-25T04:59:37.080Z,18.23
2022-08-25T05:02:05.227Z,18.52
2022-08-25T05:04:33.795Z,19.02
2022-08-25T05:07:00.970Z,19.34
2022-08-25T05:09:27.998Z,19.37
2022-08-25T05:11:54.982Z,19.50
2022-08-25T05:14:25.654Z,19.79
2022-08-25T05:16:54.914Z,19.90
2022-08-25T05:19:22.255Z,19.97
2022-08-25T05:21:48.991Z,20.24
2022-08-25T05:24:15.749Z,20.74
2022-08-25T05:26:44.005Z,20.87
2022-08-25T05:29:11.710Z,21.09
2022-08-25T05:31:42.337Z,21.21
2022-08-25T05:34:12.072Z,21.44
2022-08-25T05:36:43.110Z,21.34
2022-08-25T05:39:10.522Z,21.98
2022-08-25T05:41:37.241Z,22.06
2022-08-25T05:44:04.151Z,21.73
2022-08-25T05:46:31.641Z,21.82
2022-08-25T05:48:59.056Z,22.64
2022-08-25T05:51:26.327Z,22.72
2022-08-25T05:53:53.087Z,22.57
2022-08-25T05:56:19.990Z,22.50
2022-08-25T05:58:47.029Z,22.57
2022-08-25T06:01:45.574Z,23.24
2022-08-25T06:04:16.171Z,23.67
2022-08-25T06:06:42.869Z,23.60
2022-08-25T06:09:11.968Z,23.79
2022-08-25T06:11:39.966Z,23.61
2022-08-25T06:14:07.662Z,23.70
2022-08-25T06:16:34.450Z,23.30
2022-08-25T06:19:03.463Z,23.31
2022-08-25T06:21:30.581Z,23.86
2022-08-25T06:23:57.264Z,24.05
2022-08-25T06:26:24.597Z,24.29
2022-08-25T06:28:51.750Z,23.87
2022-08-25T06:31:22.225Z,24.51
2022-08-25T06:33:49.563Z,24.20
2022-08-25T06:36:16.471Z,24.36
2022-08-25T06:38:43.453Z,25.07
2022-08-25T06:41:13.000Z,25.06
2022-08-25T06:43:47.304Z,25.27
2022-08-25T06:46:36.348Z,24.59
2022-08-25T06:49:08.158Z,24.26
2022-08-25T06:51:38.278Z,24.51
2022-08-25T06:54:06.639Z,24.72
2022-08-25T06:56:38.987Z,24.36
2022-08-25T06:59:06.681Z,24.22
2022-08-25T07:01:34.156Z,24.29
2022-08-25T07:04:02.760Z,23.80
2022-08-25T07:06:32.164Z,23.87
2022-08-25T07:09:00.321Z,24.02
2022-08-25T07:11:27.781Z,24.14
2022-08-25T07:13:54.552Z,24.18
2022-08-25T07:16:21.819Z,24.40
2022-08-25T07:18:49.277Z,24.45
2022-08-25T07:21:16.206Z,24.41
2022-08-25T07:23:42.843Z,24.44
2022-08-25T07:26:33.648Z,24.74
2022-08-25T07:28:59.719Z,24.93
2022-08-25T07:31:29.453Z,25.08
2022-08-25T07:34:16.340Z,24.91
2022-08-25T07:36:43.729Z,24.74
2022-08-25T07:39:10.952Z,24.68
2022-08-25T07:41:41.131Z,25.09
2022-08-25T07:44:11.340Z,25.14
2022-08-25T07:46:38.923Z,24.99
2022-08-25T07:49:16.375Z,25.40
2022-08-25T07:52:05.259Z,25.23
2022-08-25T07:54:33.908Z,25.27
2022-08-25T07:57:01.034Z,25.22
2022-08-25T07:59:30.047Z,25.61
2022-08-25T08:01:57.402Z,25.31
2022-08-25T08:04:24.270Z,25.37
2022-08-25T08:06:50.877Z,25.30
2022-08-25T08:09:17.548Z,25.44
2022-08-25T08:11:53.833Z,25.37
2022-08-25T08:14:21.472Z,25.38
2022-08-25T08:16:48.156Z,25.46
2022-08-25T08:19:15.841Z,25.44
2022-08-25T08:21:46.708Z,25.60
2022-08-25T08:24:31.227Z,25.55
2022-08-25T08:27:00.905Z,25.61
2022-08-25T08:29:27.876Z,25.74
2022-08-25T08:31:54.522Z,25.82
2022-08-25T08:34:24.898Z,26.19
2022-08-25T08:36:52.991Z,26.22
2022-08-25T08:39:19.811Z,26.09
2022-08-25T08:42:27.439Z,25.95
2022-08-25T08:45:17.242Z,26.10
2022-08-25T08:48:00.852Z,25.99
2022-08-25T08:50:40.337Z,25.96
2022-08-25T08:53:22.377Z,26.25
2022-08-25T08:55:53.053Z,26.02
2022-08-25T08:58:26.428Z,25.95
2022-08-25T09:00:58.310Z,26.03
2022-08-25T09:03:37.158Z,25.94
2022-08-25T09:06:18.972Z,26.04
2022-08-25T09:08:46.051Z,26.14
2022-08-25T09:11:18.941Z,26.06
2022-08-25T09:14:23.106Z,25.99
2022-08-25T09:17:26.587Z,26.08
2022-08-25T09:19:53.805Z,26.26
2022-08-25T09:22:33.853Z,26.77
2022-08-25T09:25:53.082Z,26.33
2022-08-25T09:28:32.800Z,26.39
2022-08-25T09:31:05.017Z,26.18
2022-08-25T09:33:35.525Z,26.44
2022-08-25T09:36:06.437Z,26.27
2022-08-25T09:38:35.811Z,26.50
2022-08-25T09:41:03.182Z,26.60
2022-08-25T09:43:33.336Z,26.62
2022-08-25T09:46:16.144Z,26.67
2022-08-25T09:48:55.965Z,26.62
2022-08-25T09:51:42.206Z,26.62
2022-08-25T09:54:17.854Z,26.67
2022-08-25T09:56:53.686Z,26.85
2022-08-25T09:59:30.828Z,26.83
2022-08-25T10:02:21.139Z,26.86
2022-08-25T10:04:52.311Z,26.80
2022-08-25T10:07:32.318Z,26.83
2022-08-25T10:10:04.397Z,27.03
2022-08-25T10:12:42.738Z,26.77
2022-08-25T10:15:15.981Z,26.92
2022-08-25T10:17:56.590Z,27.00
2022-08-25T10:20:28.675Z,27.20
2022-08-25T10:23:20.231Z,27.07
2022-08-25T10:26:00.372Z,26.99
2022-08-25T10:28:34.400Z,27.21
2022-08-25T10:31:10.288Z,27.32
2022-08-25T10:33:46.216Z,27.14
2022-08-25T10:36:21.646Z,27.05
2022-08-25T10:39:01.612Z,27.19
2022-08-25T10:41:37.729Z,27.13
2022-08-25T10:44:31.113Z,27.19
2022-08-25T10:47:05.915Z,27.44
2022-08-25T10:49:45.205Z,27.57
2022-08-25T10:52:21.491Z,27.76
2022-08-25T10:55:14.457Z,27.49
2022-08-25T10:58:03.040Z,27.55
2022-08-25T11:00:37.457Z,27.55
2022-08-25T11:03:35.323Z,27.56
2022-08-25T11:06:15.317Z,27.67
2022-08-25T11:08:52.038Z,27.75
2022-08-25T11:11:33.054Z,27.92
2022-08-25T11:14:11.390Z,28.23
2022-08-25T11:16:58.527Z,28.14
2022-08-25T11:19:31.231Z,28.26
2022-08-25T11:22:21.765Z,28.25
2022-08-25T11:25:01.080Z,28.05
2022-08-25T11:27:51.485Z,28.05
2022-08-25T11:30:19.227Z,27.90
2022-08-25T11:32:48.909Z,28.15
2022-08-25T11:35:18.830Z,28.29
2022-08-25T11:38:00.719Z,28.41
2022-08-25T11:40:55.695Z,28.23
2022-08-25T11:43:25.171Z,28.45
2022-08-25T11:46:01.249Z,28.25
2022-08-25T11:48:51.623Z,28.12
2022-08-25T11:51:33.943Z,28.35
2022-08-25T11:54:36.931Z,28.34
2022-08-25T11:57:07.181Z,28.40
2022-08-25T11:59:52.383Z,28.40
2022-08-25T12:02:30.974Z,28.33
2022-08-25T12:04:57.988Z,28.50
2022-08-25T12:07:28.062Z,28.50
2022-08-25T12:09:54.931Z,28.34
2022-08-25T12:12:29.518Z,28.91
2022-08-25T12:15:23.918Z,28.77
2022-08-25T12:18:12.861Z,28.46
2022-08-25T12:20:56.239Z,28.82
2022-08-25T12:23:30.383Z,29.00
2022-08-25T12:26:01.456Z,28.67
2022-08-25T12:28:36.168Z,29.05
2022-08-25T12:31:16.021Z,28.77
2022-08-25T12:34:02.756Z,28.59
2022-08-25T12:36:33.278Z,28.79
2022-08-25T12:39:18.705Z,28.45
2022-08-25T12:41:56.006Z,28.71
2022-08-25T12:44:36.685Z,28.48
2022-08-25T12:47:24.707Z,28.79
2022-08-25T12:49:51.598Z,28.60
2022-08-25T12:52:21.269Z,28.32
2022-08-25T12:54:59.716Z,28.33
2022-08-25T12:57:42.998Z,28.02
2022-08-25T13:00:16.482Z,28.25
2022-08-25T13:02:52.675Z,28.54
2022-08-25T13:05:25.421Z,28.52
2022-08-25T13:08:33.527Z,28.64
2022-08-25T13:11:17.562Z,28.26
2022-08-25T13:13:57.650Z,28.36
2022-08-25T13:16:29.998Z,28.29
2022-08-25T13:19:01.771Z,28.53
2022-08-25T13:21:33.735Z,28.47
2022-08-25T13:24:05.776Z,28.70
2022-08-25T13:26:37.724Z,28.59
2022-08-25T13:29:19.900Z,28.55
2022-08-25T13:31:58.479Z,28.57
2022-08-25T13:34:34.856Z,28.50
2022-08-25T13:37:29.588Z,28.92
2022-08-25T13:40:10.242Z,28.42
2022-08-25T13:42:42.481Z,28.47
2022-08-25T13:45:16.819Z,28.57
2022-08-25T13:47:45.799Z,28.83
2022-08-25T13:50:17.649Z,28.90
2022-08-25T13:52:53.968Z,28.90
2022-08-25T13:55:27.611Z,29.01
2022-08-25T13:57:54.974Z,29.02
2022-08-25T14:00:43.254Z,29.01
2022-08-25T14:03:30.141Z,28.95
2022-08-25T14:06:16.533Z,29.06
2022-08-25T14:08:48.660Z,28.94
2022-08-25T14:11:34.375Z,29.00
2022-08-25T14:14:09.488Z,29.39
2022-08-25T14:16:43.454Z,29.08
2022-08-25T14:19:19.814Z,28.80
2022-08-25T14:21:47.396Z,29.09
2022-08-25T14:24:22.582Z,28.92
2022-08-25T14:26:54.500Z,29.10
2022-08-25T14:29:22.142Z,29.19
2022-08-25T14:31:49.434Z,29.01
2022-08-25T14:34:18.053Z,29.08
2022-08-25T14:36:48.364Z,29.00
2022-08-25T14:39:15.331Z,29.13
2022-08-25T14:41:45.342Z,29.02
2022-08-25T14:44:20.414Z,28.90
2022-08-25T14:46:55.174Z,28.99
2022-08-25T14:49:26.949Z,29.29
2022-08-25T14:51:53.814Z,29.40
2022-08-25T14:54:25.950Z,29.47
2022-08-25T14:56:53.786Z,29.38
2022-08-25T14:59:20.652Z,29.37
2022-08-25T15:01:50.087Z,29.32
2022-08-25T15:04:27.428Z,29.11
2022-08-25T15:07:00.085Z,29.00
2022-08-25T15:09:33.390Z,28.89
2022-08-25T15:12:00.630Z,28.83
2022-08-25T15:14:29.143Z,28.98
2022-08-25T15:17:01.017Z,28.92
2022-08-25T15:19:28.773Z,29.06
2022-08-25T15:21:57.951Z,29.12
2022-08-25T15:24:26.689Z,28.99
2022-08-25T15:26:56.055Z,28.93
2022-08-25T15:29:26.264Z,28.86
2022-08-25T15:31:53.343Z,28.81
2022-08-25T15:34:20.070Z,28.65
2022-08-25T15:36:46.793Z,28.58
2022-08-25T15:39:14.163Z,28.67
2022-08-25T15:41:42.598Z,29.08
2022-08-25T15:44:11.341Z,29.23
2022-08-25T15:46:41.578Z,29.39
2022-08-25T15:49:08.292Z,29.32
2022-08-25T15:51:35.083Z,29.22
2022-08-25T15:54:04.604Z,29.13
2022-08-25T15:56:31.302Z,29.07
2022-08-25T15:58:57.923Z,29.15
2022-08-25T16:01:27.308Z,29.10
2022-08-25T16:03:57.582Z,29.03
2022-08-25T16:06:26.347Z,28.79
2022-08-25T16:08:52.971Z,28.68
2022-08-25T16:11:24.459Z,28.57
2022-08-25T16:13:52.244Z,28.65
2022-08-25T16:16:20.695Z,28.36
2022-08-25T16:18:47.701Z,28.35
2022-08-25T16:21:17.659Z,28.08
2022-08-25T16:23:45.158Z,28.03
2022-08-25T16:26:13.805Z,28.26
2022-08-25T16:28:43.829Z,28.21
2022-08-25T16:31:13.052Z,28.17
2022-08-25T16:36:15.219Z,28.31
2022-08-25T16:38:42.629Z,28.07
2022-08-25T16:41:22.283Z,28.16
2022-08-25T16:43:49.285Z,28.15
2022-08-25T16:46:19.240Z,28.11
2022-08-25T16:48:46.578Z,28.00
2022-08-25T16:51:16.283Z,28.02
2022-08-25T16:54:08.128Z,28.06
2022-08-25T16:56:36.036Z,28.09
2022-08-25T16:59:04.952Z,28.11
2022-08-25T17:01:35.341Z,28.26
2022-08-25T17:04:04.133Z,28.43
2022-08-25T17:06:35.288Z,28.59
2022-08-25T17:09:02.362Z,28.59
2022-08-25T17:11:35.039Z,28.56
2022-08-25T17:14:04.498Z,28.64
2022-08-25T17:16:37.894Z,28.48
2022-08-25T17:19:11.852Z,28.33
2022-08-25T17:21:41.141Z,28.32
2022-08-25T17:24:12.975Z,28.21
2022-08-25T17:26:41.336Z,28.02
2022-08-25T17:29:08.346Z,27.77
2022-08-25T17:31:39.670Z,27.73
2022-08-25T17:34:12.054Z,27.58
2022-08-25T17:36:39.810Z,27.64
2022-08-25T17:39:08.825Z,27.42
2022-08-25T17:41:37.822Z,27.41
2022-08-25T17:44:05.060Z,27.17
2022-08-25T17:46:32.510Z,27.16
2022-08-25T17:48:59.290Z,27.19
2022-08-25T17:51:25.906Z,27.17
2022-08-25T17:53:52.815Z,26.90
2022-08-25T17:56:21.957Z,26.73
2022-08-25T17:58:49.391Z,26.52
2022-08-25T18:01:25.593Z,26.42
2022-08-25T18:03:52.576Z,26.33
2022-08-25T18:06:20.527Z,26.23
2022-08-25T18:08:53.004Z,26.14
2022-08-25T18:11:24.514Z,26.02
2022-08-25T18:13:55.077Z,25.88
2022-08-25T18:16:23.087Z,25.79
2022-08-25T18:18:50.276Z,25.46
2022-08-25T18:21:20.324Z,25.35
2022-08-25T18:23:47.742Z,25.16
2022-08-25T18:26:17.048Z,24.91
2022-08-25T18:28:48.797Z,24.71
2022-08-25T18:31:15.516Z,24.46
2022-08-25T18:33:46.568Z,24.47
2022-08-25T18:36:13.606Z,24.53
2022-08-25T18:39:00.099Z,24.34
2022-08-25T18:41:34.050Z,24.55
2022-08-25T18:44:00.989Z,24.38
2022-08-25T18:46:27.721Z,24.17
2022-08-25T18:48:55.538Z,23.99
2022-08-25T18:51:23.517Z,23.83
2022-08-25T18:53:54.461Z,23.80
2022-08-25T18:56:26.631Z,23.79
2022-08-25T18:58:53.413Z,23.74
2022-08-25T19:01:20.657Z,23.64
2022-08-25T19:03:48.553Z,23.50
2022-08-25T19:06:15.709Z,23.44
2022-08-25T19:08:42.397Z,23.38
2022-08-25T19:11:10.062Z,23.34
2022-08-25T19:13:38.424Z,23.26
2022-08-25T19:16:17.823Z,23.18
2022-08-25T19:18:47.166Z,23.12
2022-08-25T19:21:13.988Z,23.15
2022-08-25T19:23:40.672Z,23.12
2022-08-25T19:26:13.969Z,23.03
2022-08-25T19:28:48.914Z,23.04
2022-08-25T19:31:18.267Z,23.03
2022-08-25T19:33:47.256Z,22.94
2022-08-25T19:36:16.662Z,22.84
2022-08-25T19:38:44.443Z,22.68
2022-08-25T19:41:14.912Z,22.55
2022-08-25T19:43:56.379Z,22.53
2022-08-25T19:46:33.120Z,22.51
2022-08-25T19:49:09.899Z,22.48
2022-08-25T19:51:44.736Z,22.47
2022-08-25T19:54:13.581Z,22.39
2022-08-25T19:56:53.637Z,22.31
2022-08-25T19:59:22.323Z,22.36
2022-08-25T20:01:50.167Z,22.30
2022-08-25T20:04:17.006Z,22.31
2022-08-25T20:06:43.952Z,22.28
2022-08-25T20:09:36.020Z,22.46
2022-08-25T20:12:02.989Z,22.31
2022-08-25T20:14:29.818Z,22.25
2022-08-25T20:16:56.530Z,22.17
2022-08-25T20:19:23.347Z,22.36
2022-08-25T20:21:50.061Z,22.78
2022-08-25T20:24:35.449Z,22.67
2022-08-25T20:27:03.657Z,22.63
2022-08-25T20:29:31.060Z,22.37
2022-08-25T20:31:58.773Z,22.25
2022-08-25T20:34:28.413Z,22.11
2022-08-25T20:36:55.615Z,22.11
2022-08-25T20:39:22.783Z,21.96
2022-08-25T20:41:49.412Z,21.88
2022-08-25T20:44:17.323Z,21.77
2022-08-25T20:46:44.625Z,21.78
2022-08-25T20:49:12.585Z,21.68
2022-08-25T20:51:40.328Z,21.57
2022-08-25T20:54:07.669Z,21.48
2022-08-25T20:56:34.358Z,21.41
2022-08-25T20:59:01.110Z,21.44
2022-08-25T21:01:37.745Z,21.54
2022-08-25T21:04:09.075Z,21.52
2022-08-25T21:06:36.294Z,21.46
2022-08-25T21:09:12.508Z,21.47
2022-08-25T21:11:43.718Z,21.38
2022-08-25T21:14:12.755Z,21.37
2022-08-25T21:16:40.841Z,21.32
2022-08-25T21:19:08.988Z,21.22
2022-08-25T21:21:44.059Z,21.33
2022-08-25T21:24:11.340Z,21.28
2022-08-25T21:26:47.646Z,21.33
2022-08-25T21:29:16.652Z,21.24
2022-08-25T21:31:43.462Z,21.36
2022-08-25T21:34:11.594Z,21.31
2022-08-25T21:36:38.716Z,21.21
2022-08-25T21:39:05.719Z,21.18
2022-08-25T21:41:36.889Z,21.27
2022-08-25T21:44:03.803Z,21.23
2022-08-25T21:46:33.449Z,21.12
2022-08-25T21:49:01.450Z,21.14
2022-08-25T21:51:43.406Z,21.09
2022-08-25T21:54:13.217Z,21.08
2022-08-25T21:56:39.800Z,21.06
2022-08-25T21:59:08.763Z,21.45
2022-08-25T22:01:35.688Z,21.73
2022-08-25T22:04:03.301Z,22.01
2022-08-25T22:06:32.170Z,22.09
2022-08-25T22:08:58.909Z,22.06
2022-08-25T22:11:26.487Z,22.09
2022-08-25T22:13:53.522Z,22.03
2022-08-25T22:16:22.042Z,22.03
2022-08-25T22:18:49.811Z,22.04
2022-08-25T22:21:18.733Z,21.98
2022-08-25T22:23:45.775Z,21.89
2022-08-25T22:26:15.317Z,21.65
2022-08-25T22:28:46.486Z,21.53
2022-08-25T22:31:14.798Z,21.53
2022-08-25T22:33:48.440Z,21.39
2022-08-25T22:36:15.605Z,21.69
2022-08-25T22:38:43.893Z,22.42
2022-08-25T22:41:10.879Z,22.46
2022-08-25T22:43:38.623Z,22.43
2022-08-25T22:46:06.232Z,22.47
2022-08-25T22:48:38.287Z,22.50
2022-08-25T22:51:16.293Z,22.54
2022-08-25T22:53:44.590Z,22.63
2022-08-25T22:56:13.356Z,22.70
2022-08-25T22:58:51.642Z,22.78
2022-08-25T23:01:20.449Z,22.68
2022-08-25T23:03:47.602Z,22.70
2022-08-25T23:06:20.731Z,22.94
2022-08-25T23:08:52.379Z,22.52
2022-08-25T23:11:21.760Z,22.57
2022-08-25T23:13:48.484Z,22.54
2022-08-25T23:16:15.899Z,22.64
2022-08-25T23:18:44.686Z,22.47
2022-08-25T23:21:35.120Z,22.55
2022-08-25T23:24:04.881Z,22.53
2022-08-25T23:26:33.390Z,22.42
2022-08-25T23:29:00.635Z,22.54
2022-08-25T23:31:30.147Z,22.41
2022-08-25T23:33:57.831Z,22.37
2022-08-25T23:36:24.975Z,22.35
2022-08-25T23:38:52.513Z,22.31
2022-08-25T23:41:23.095Z,22.30
2022-08-25T23:43:50.675Z,22.38
2022-08-25T23:46:19.824Z,22.12
2022-08-25T23:48:49.490Z,22.17
2022-08-25T23:51:27.844Z,22.16
2022-08-25T23:53:55.895Z,22.13
2022-08-25T23:56:24.078Z,22.07
2022-08-25T23:58:51.993Z,22.08
